sensor_id;sensor_type;location;lat;lon;timestamp;pressure;altitude;pressure_sealevel;temperature;humidity
64066;BME280;50318;54.760;9.408;2022-07-29T00:01:28;101762.44;;;17.10;56.93
64066;BME280;50318;54.760;9.408;2022-07-29T00:03:54;101751.53;;;17.06;56.70
64066;BME280;50318;54.760;9.408;2022-07-29T00:06:20;101766.63;;;17.05;56.98
64066;BME280;50318;54.760;9.408;2022-07-29T00:08:46;101763.09;;;17.05;56.91
64066;BME280;50318;54.760;9.408;2022-07-29T00:11:11;101763.25;;;17.01;56.92
64066;BME280;50318;54.760;9.408;2022-07-29T00:13:37;101757.41;;;16.99;56.89
64066;BME280;50318;54.760;9.408;2022-07-29T00:16:02;101758.63;;;16.98;57.08
64066;BME280;50318;54.760;9.408;2022-07-29T00:18:34;101754.63;;;16.99;56.92
64066;BME280;50318;54.760;9.408;2022-07-29T00:20:59;101756.16;;;17.00;57.04
64066;BME280;50318;54.760;9.408;2022-07-29T00:23:25;101758.94;;;17.00;57.17
64066;BME280;50318;54.760;9.408;2022-07-29T00:25:58;101752.16;;;17.01;57.05
64066;BME280;50318;54.760;9.408;2022-07-29T00:28:32;101743.84;;;17.01;57.34
64066;BME280;50318;54.760;9.408;2022-07-29T00:30:58;101752.44;;;17.03;57.29
64066;BME280;50318;54.760;9.408;2022-07-29T00:33:56;101759.22;;;17.02;57.34
64066;BME280;50318;54.760;9.408;2022-07-29T00:36:21;101761.22;;;17.02;57.42
64066;BME280;50318;54.760;9.408;2022-07-29T00:38:48;101761.72;;;17.00;57.27
64066;BME280;50318;54.760;9.408;2022-07-29T00:41:13;101759.41;;;16.99;57.44
64066;BME280;50318;54.760;9.408;2022-07-29T00:43:39;101766.66;;;16.96;57.38
64066;BME280;50318;54.760;9.408;2022-07-29T00:46:04;101762.34;;;16.95;57.72
64066;BME280;50318;54.760;9.408;2022-07-29T00:48:30;101765.41;;;16.97;57.32
64066;BME280;50318;54.760;9.408;2022-07-29T00:50:59;101755.88;;;16.98;57.51
64066;BME280;50318;54.760;9.408;2022-07-29T00:53:48;101768.50;;;16.99;57.50
64066;BME280;50318;54.760;9.408;2022-07-29T00:56:16;101765.72;;;16.99;57.53
64066;BME280;50318;54.760;9.408;2022-07-29T00:58:41;101768.50;;;16.99;57.51
64066;BME280;50318;54.760;9.408;2022-07-29T01:01:07;101771.56;;;17.01;57.61
64066;BME280;50318;54.760;9.408;2022-07-29T01:03:32;101767.56;;;17.02;57.57
64066;BME280;50318;54.760;9.408;2022-07-29T01:05:58;101767.56;;;17.02;57.55
64066;BME280;50318;54.760;9.408;2022-07-29T01:08:24;101771.09;;;17.03;57.60
64066;BME280;50318;54.760;9.408;2022-07-29T01:10:50;101768.78;;;17.01;57.77
64066;BME280;50318;54.760;9.408;2022-07-29T01:13:16;101761.72;;;17.00;57.80
64066;BME280;50318;54.760;9.408;2022-07-29T01:15:46;101760.16;;;16.99;57.97
64066;BME280;50318;54.760;9.408;2022-07-29T01:18:24;101761.41;;;16.98;57.64
64066;BME280;50318;54.760;9.408;2022-07-29T01:24:07;101759.28;;;16.93;57.79
64066;BME280;50318;54.760;9.408;2022-07-29T01:31:15;101759.34;;;16.84;57.89
64066;BME280;50318;54.760;9.408;2022-07-29T01:33:42;101761.50;;;16.80;57.85
64066;BME280;50318;54.760;9.408;2022-07-29T01:36:20;101756.09;;;16.76;58.11
64066;BME280;50318;54.760;9.408;2022-07-29T01:38:50;101753.34;;;16.76;58.34
64066;BME280;50318;54.760;9.408;2022-07-29T01:41:19;101752.56;;;16.76;58.50
64066;BME280;50318;54.760;9.408;2022-07-29T01:46:19;101746.91;;;16.70;58.50
64066;BME280;50318;54.760;9.408;2022-07-29T01:48:53;101737.53;;;16.68;59.57
64066;BME280;50318;54.760;9.408;2022-07-29T01:51:21;101739.66;;;16.73;58.95
64066;BME280;50318;54.760;9.408;2022-07-29T01:54:25;101742.44;;;16.73;58.64
64066;BME280;50318;54.760;9.408;2022-07-29T01:56:42;101735.06;;;16.70;58.83
64066;BME280;50318;54.760;9.408;2022-07-29T01:59:08;101735.22;;;16.66;58.27
64066;BME280;50318;54.760;9.408;2022-07-29T02:01:35;101730.59;;;16.63;58.51
64066;BME280;50318;54.760;9.408;2022-07-29T02:04:05;101737.06;;;16.60;58.68
64066;BME280;50318;54.760;9.408;2022-07-29T02:06:32;101741.97;;;16.56;58.85
64066;BME280;50318;54.760;9.408;2022-07-29T02:09:06;101732.78;;;16.50;58.89
64066;BME280;50318;54.760;9.408;2022-07-29T02:11:32;101730.63;;;16.45;58.64
64066;BME280;50318;54.760;9.408;2022-07-29T02:13:58;101732.03;;;16.40;58.75
64066;BME280;50318;54.760;9.408;2022-07-29T02:16:29;101735.75;;;16.37;58.85
64066;BME280;50318;54.760;9.408;2022-07-29T02:19:32;101725.72;;;16.31;58.82
64066;BME280;50318;54.760;9.408;2022-07-29T02:21:57;101737.75;;;16.27;59.13
64066;BME280;50318;54.760;9.408;2022-07-29T02:24:24;101741.44;;;16.24;59.14
64066;BME280;50318;54.760;9.408;2022-07-29T02:26:51;101736.06;;;16.21;59.29
64066;BME280;50318;54.760;9.408;2022-07-29T02:29:18;101733.00;;;16.19;59.29
64066;BME280;50318;54.760;9.408;2022-07-29T02:31:45;101737.47;;;16.16;59.28
64066;BME280;50318;54.760;9.408;2022-07-29T02:34:12;101730.09;;;16.13;59.27
64066;BME280;50318;54.760;9.408;2022-07-29T02:36:38;101729.03;;;16.11;59.51
64066;BME280;50318;54.760;9.408;2022-07-29T02:39:04;101733.47;;;16.08;59.30
64066;BME280;50318;54.760;9.408;2022-07-29T02:41:32;101725.31;;;16.05;59.32
64066;BME280;50318;54.760;9.408;2022-07-29T02:44:06;101734.38;;;16.05;59.78
64066;BME280;50318;54.760;9.408;2022-07-29T02:46:33;101728.38;;;16.07;59.69
64066;BME280;50318;54.760;9.408;2022-07-29T02:49:02;101728.38;;;16.07;59.60
64066;BME280;50318;54.760;9.408;2022-07-29T02:51:32;101733.16;;;16.06;59.89
64066;BME280;50318;54.760;9.408;2022-07-29T02:53:58;101725.63;;;16.07;60.00
64066;BME280;50318;54.760;9.408;2022-07-29T02:56:27;101723.63;;;16.07;59.98
64066;BME280;50318;54.760;9.408;2022-07-29T02:58:54;101729.94;;;16.08;60.25
64066;BME280;50318;54.760;9.408;2022-07-29T03:01:21;101729.50;;;16.09;60.43
64066;BME280;50318;54.760;9.408;2022-07-29T03:03:48;101729.78;;;16.11;60.51
64066;BME280;50318;54.760;9.408;2022-07-29T03:06:14;101724.56;;;16.13;60.60
64066;BME280;50318;54.760;9.408;2022-07-29T03:08:41;101732.41;;;16.15;60.50
64066;BME280;50318;54.760;9.408;2022-07-29T03:11:07;101725.31;;;16.14;60.59
64066;BME280;50318;54.760;9.408;2022-07-29T03:13:34;101722.25;;;16.12;60.56
64066;BME280;50318;54.760;9.408;2022-07-29T03:16:00;101728.25;;;16.10;60.59
64066;BME280;50318;54.760;9.408;2022-07-29T03:18:26;101718.72;;;16.11;60.94
64066;BME280;50318;54.760;9.408;2022-07-29T03:20:52;101718.84;;;16.17;61.43
64066;BME280;50318;54.760;9.408;2022-07-29T03:23:21;101726.22;;;16.20;61.50
64066;BME280;50318;54.760;9.408;2022-07-29T03:25:49;101720.53;;;16.23;61.32
64066;BME280;50318;54.760;9.408;2022-07-29T03:28:15;101717.28;;;16.25;61.67
64066;BME280;50318;54.760;9.408;2022-07-29T03:30:40;101714.84;;;16.27;61.71
64066;BME280;50318;54.760;9.408;2022-07-29T03:33:06;101717.13;;;16.28;61.52
64066;BME280;50318;54.760;9.408;2022-07-29T03:35:31;101718.19;;;16.31;61.64
64066;BME280;50318;54.760;9.408;2022-07-29T03:37:57;101713.75;;;16.34;62.06
64066;BME280;50318;54.760;9.408;2022-07-29T03:40:27;101705.13;;;16.32;61.98
64066;BME280;50318;54.760;9.408;2022-07-29T03:42:56;101701.16;;;16.33;62.09
64066;BME280;50318;54.760;9.408;2022-07-29T03:45:22;101716.81;;;16.36;61.99
64066;BME280;50318;54.760;9.408;2022-07-29T03:47:54;101713.44;;;16.41;61.99
64066;BME280;50318;54.760;9.408;2022-07-29T03:50:22;101717.84;;;16.47;61.90
64066;BME280;50318;54.760;9.408;2022-07-29T03:52:48;101717.69;;;16.51;61.86
64066;BME280;50318;54.760;9.408;2022-07-29T03:55:14;101712.91;;;16.51;62.10
64066;BME280;50318;54.760;9.408;2022-07-29T03:57:40;101724.59;;;16.55;61.83
64066;BME280;50318;54.760;9.408;2022-07-29T04:00:06;101711.06;;;16.57;62.06
64066;BME280;50318;54.760;9.408;2022-07-29T04:02:32;101714.59;;;16.58;62.10
64066;BME280;50318;54.760;9.408;2022-07-29T04:04:57;101709.22;;;16.54;62.37
64066;BME280;50318;54.760;9.408;2022-07-29T04:07:23;101711.38;;;16.60;62.19
64066;BME280;50318;54.760;9.408;2022-07-29T04:09:48;101710.72;;;16.65;62.45
64066;BME280;50318;54.760;9.408;2022-07-29T04:12:14;101712.41;;;16.71;62.54
64066;BME280;50318;54.760;9.408;2022-07-29T04:14:39;101710.41;;;16.72;62.91
64066;BME280;50318;54.760;9.408;2022-07-29T04:17:05;101707.00;;;16.77;62.70
64066;BME280;50318;54.760;9.408;2022-07-29T04:19:30;101711.75;;;16.85;62.74
64066;BME280;50318;54.760;9.408;2022-07-29T04:21:56;101717.41;;;16.91;62.87
64066;BME280;50318;54.760;9.408;2022-07-29T04:24:22;101703.22;;;16.98;62.67
64066;BME280;50318;54.760;9.408;2022-07-29T04:26:48;101707.19;;;17.06;62.57
64066;BME280;50318;54.760;9.408;2022-07-29T04:29:13;101703.13;;;17.16;62.60
64066;BME280;50318;54.760;9.408;2022-07-29T04:31:39;101702.75;;;17.24;62.74
64066;BME280;50318;54.760;9.408;2022-07-29T04:34:34;101709.19;;;17.30;62.64
64066;BME280;50318;54.760;9.408;2022-07-29T04:37:03;101699.47;;;17.34;62.67
64066;BME280;50318;54.760;9.408;2022-07-29T04:39:28;101704.63;;;17.41;62.70
64066;BME280;50318;54.760;9.408;2022-07-29T04:41:54;101696.72;;;17.49;62.48
64066;BME280;50318;54.760;9.408;2022-07-29T04:44:19;101700.38;;;17.55;62.61
64066;BME280;50318;54.760;9.408;2022-07-29T04:46:45;101698.78;;;17.63;62.73
64066;BME280;50318;54.760;9.408;2022-07-29T04:49:10;101702.75;;;17.71;62.66
64066;BME280;50318;54.760;9.408;2022-07-29T04:51:36;101697.78;;;17.75;62.74
64066;BME280;50318;54.760;9.408;2022-07-29T04:54:01;101707.28;;;17.84;62.39
64066;BME280;50318;54.760;9.408;2022-07-29T04:56:27;101713.69;;;17.90;62.43
64066;BME280;50318;54.760;9.408;2022-07-29T04:58:52;101714.25;;;17.94;62.54
64066;BME280;50318;54.760;9.408;2022-07-29T05:01:29;101710.06;;;17.98;62.15
64066;BME280;50318;54.760;9.408;2022-07-29T05:03:54;101716.22;;;18.02;62.25
64066;BME280;50318;54.760;9.408;2022-07-29T05:06:20;101708.44;;;18.06;62.41
64066;BME280;50318;54.760;9.408;2022-07-29T05:08:45;101705.75;;;18.12;62.37
64066;BME280;50318;54.760;9.408;2022-07-29T05:11:11;101705.28;;;18.14;62.20
64066;BME280;50318;54.760;9.408;2022-07-29T05:13:36;101707.38;;;18.19;62.09
64066;BME280;50318;54.760;9.408;2022-07-29T05:16:02;101707.22;;;18.22;62.00
64066;BME280;50318;54.760;9.408;2022-07-29T05:18:27;101712.56;;;18.26;61.95
64066;BME280;50318;54.760;9.408;2022-07-29T05:20:53;101709.88;;;18.31;61.99
64066;BME280;50318;54.760;9.408;2022-07-29T05:23:36;101715.03;;;18.38;62.06
64066;BME280;50318;54.760;9.408;2022-07-29T05:26:02;101701.72;;;18.42;62.23
64066;BME280;50318;54.760;9.408;2022-07-29T05:28:27;101700.78;;;18.46;62.21
64066;BME280;50318;54.760;9.408;2022-07-29T05:30:53;101707.19;;;18.52;62.14
64066;BME280;50318;54.760;9.408;2022-07-29T05:33:18;101704.50;;;18.57;62.33
64066;BME280;50318;54.760;9.408;2022-07-29T05:35:46;101712.75;;;18.66;62.30
64066;BME280;50318;54.760;9.408;2022-07-29T05:38:12;101706.81;;;18.74;62.36
64066;BME280;50318;54.760;9.408;2022-07-29T05:40:37;101700.56;;;18.79;62.10
64066;BME280;50318;54.760;9.408;2022-07-29T05:43:03;101708.22;;;18.84;62.37
64066;BME280;50318;54.760;9.408;2022-07-29T05:45:28;101714.88;;;18.92;62.40
64066;BME280;50318;54.760;9.408;2022-07-29T05:47:54;101721.03;;;18.96;62.35
64066;BME280;50318;54.760;9.408;2022-07-29T05:50:19;101702.63;;;18.98;62.41
64066;BME280;50318;54.760;9.408;2022-07-29T05:52:45;101704.97;;;19.06;62.48
64066;BME280;50318;54.760;9.408;2022-07-29T05:55:10;101706.09;;;19.14;62.59
64066;BME280;50318;54.760;9.408;2022-07-29T05:57:36;101708.50;;;19.21;62.54
64066;BME280;50318;54.760;9.408;2022-07-29T06:00:03;101703.75;;;19.27;62.82
64066;BME280;50318;54.760;9.408;2022-07-29T06:02:40;101706.59;;;19.32;62.44
64066;BME280;50318;54.760;9.408;2022-07-29T06:05:05;101706.97;;;19.40;62.34
64066;BME280;50318;54.760;9.408;2022-07-29T06:07:34;101708.91;;;19.54;62.37
64066;BME280;50318;54.760;9.408;2022-07-29T06:09:59;101704.00;;;19.64;62.03
64066;BME280;50318;54.760;9.408;2022-07-29T06:12:25;101705.09;;;19.72;61.98
64066;BME280;50318;54.760;9.408;2022-07-29T06:14:51;101702.91;;;19.82;61.99
64066;BME280;50318;54.760;9.408;2022-07-29T06:17:16;101703.03;;;19.93;61.52
64066;BME280;50318;54.760;9.408;2022-07-29T06:19:42;101712.75;;;20.03;61.42
64066;BME280;50318;54.760;9.408;2022-07-29T06:22:07;101715.06;;;20.10;60.69
64066;BME280;50318;54.760;9.408;2022-07-29T06:24:33;101717.94;;;20.16;60.54
64066;BME280;50318;54.760;9.408;2022-07-29T06:26:58;101719.00;;;20.24;60.41
64066;BME280;50318;54.760;9.408;2022-07-29T06:29:24;101718.63;;;20.37;60.21
64066;BME280;50318;54.760;9.408;2022-07-29T06:32:16;101718.28;;;20.55;60.13
64066;BME280;50318;54.760;9.408;2022-07-29T06:34:44;101716.84;;;20.65;59.18
64066;BME280;50318;54.760;9.408;2022-07-29T06:37:10;101712.06;;;20.71;58.79
64066;BME280;50318;54.760;9.408;2022-07-29T06:39:35;101723.53;;;20.79;58.34
64066;BME280;50318;54.760;9.408;2022-07-29T06:42:02;101721.56;;;20.85;58.07
64066;BME280;50318;54.760;9.408;2022-07-29T06:44:27;101718.03;;;20.90;58.00
64066;BME280;50318;54.760;9.408;2022-07-29T06:46:56;101723.91;;;20.98;57.85
64066;BME280;50318;54.760;9.408;2022-07-29T06:49:22;101721.69;;;21.07;57.86
64066;BME280;50318;54.760;9.408;2022-07-29T06:52:09;101733.41;;;21.17;57.60
64066;BME280;50318;54.760;9.408;2022-07-29T06:54:35;101729.09;;;21.22;56.92
64066;BME280;50318;54.760;9.408;2022-07-29T06:57:00;101722.06;;;21.26;57.08
64066;BME280;50318;54.760;9.408;2022-07-29T06:59:26;101725.66;;;21.32;56.96
64066;BME280;50318;54.760;9.408;2022-07-29T07:02:14;101733.03;;;21.41;56.88
64066;BME280;50318;54.760;9.408;2022-07-29T07:04:40;101734.06;;;21.49;56.79
64066;BME280;50318;54.760;9.408;2022-07-29T07:07:05;101727.28;;;21.56;56.72
64066;BME280;50318;54.760;9.408;2022-07-29T07:09:30;101728.56;;;21.60;56.52
64066;BME280;50318;54.760;9.408;2022-07-29T07:11:56;101725.50;;;21.64;56.03
64066;BME280;50318;54.760;9.408;2022-07-29T07:14:22;101725.00;;;21.65;55.63
64066;BME280;50318;54.760;9.408;2022-07-29T07:16:47;101723.25;;;21.68;55.60
64066;BME280;50318;54.760;9.408;2022-07-29T07:19:13;101716.38;;;21.69;55.27
64066;BME280;50318;54.760;9.408;2022-07-29T07:21:38;101726.28;;;21.70;55.05
64066;BME280;50318;54.760;9.408;2022-07-29T07:24:04;101717.91;;;21.70;55.04
64066;BME280;50318;54.760;9.408;2022-07-29T07:26:29;101721.47;;;21.76;55.31
64066;BME280;50318;54.760;9.408;2022-07-29T07:28:55;101727.09;;;21.82;55.15
64066;BME280;50318;54.760;9.408;2022-07-29T07:31:20;101721.50;;;21.87;54.98
64066;BME280;50318;54.760;9.408;2022-07-29T07:33:46;101726.84;;;21.96;55.07
64066;BME280;50318;54.760;9.408;2022-07-29T07:36:11;101718.50;;;22.02;54.65
64066;BME280;50318;54.760;9.408;2022-07-29T07:38:40;101722.84;;;22.09;54.48
64066;BME280;50318;54.760;9.408;2022-07-29T07:41:06;101725.41;;;22.18;54.90
64066;BME280;50318;54.760;9.408;2022-07-29T07:43:31;101719.31;;;22.25;54.25
64066;BME280;50318;54.760;9.408;2022-07-29T07:45:57;101721.63;;;22.26;53.70
64066;BME280;50318;54.760;9.408;2022-07-29T07:48:22;101717.53;;;22.27;53.42
64066;BME280;50318;54.760;9.408;2022-07-29T07:50:48;101726.44;;;22.31;53.61
64066;BME280;50318;54.760;9.408;2022-07-29T07:53:14;101727.44;;;22.34;53.34
64066;BME280;50318;54.760;9.408;2022-07-29T07:55:40;101727.44;;;22.40;53.21
64066;BME280;50318;54.760;9.408;2022-07-29T07:58:06;101723.13;;;22.50;53.08
64066;BME280;50318;54.760;9.408;2022-07-29T08:00:31;101728.97;;;22.57;52.57
64066;BME280;50318;54.760;9.408;2022-07-29T08:02:58;101725.91;;;22.66;52.97
64066;BME280;50318;54.760;9.408;2022-07-29T08:05:23;101720.84;;;22.82;53.13
64066;BME280;50318;54.760;9.408;2022-07-29T08:07:49;101708.59;;;22.96;52.49
64066;BME280;50318;54.760;9.408;2022-07-29T08:10:15;101713.88;;;23.16;52.83
64066;BME280;50318;54.760;9.408;2022-07-29T08:13:02;101708.44;;;23.41;52.20
64066;BME280;50318;54.760;9.408;2022-07-29T08:15:27;101715.75;;;23.61;50.44
64066;BME280;50318;54.760;9.408;2022-07-29T08:17:53;101716.72;;;23.74;49.95
64066;BME280;50318;54.760;9.408;2022-07-29T08:20:18;101707.69;;;23.93;49.17
64066;BME280;50318;54.760;9.408;2022-07-29T08:22:44;101714.16;;;24.12;49.28
64066;BME280;50318;54.760;9.408;2022-07-29T08:25:10;101708.66;;;24.36;49.23
64066;BME280;50318;54.760;9.408;2022-07-29T08:27:38;101711.25;;;24.59;49.21
64066;BME280;50318;54.760;9.408;2022-07-29T08:30:03;101711.31;;;24.77;48.04
64066;BME280;50318;54.760;9.408;2022-07-29T08:32:29;101703.09;;;24.85;46.67
64066;BME280;50318;54.760;9.408;2022-07-29T08:34:56;101709.72;;;24.88;46.63
64066;BME280;50318;54.760;9.408;2022-07-29T08:37:22;101709.88;;;24.95;47.41
64066;BME280;50318;54.760;9.408;2022-07-29T08:39:47;101707.03;;;25.01;47.01
64066;BME280;50318;54.760;9.408;2022-07-29T08:42:13;101715.88;;;25.11;47.80
64066;BME280;50318;54.760;9.408;2022-07-29T08:44:57;101715.72;;;25.22;47.24
64066;BME280;50318;54.760;9.408;2022-07-29T08:47:26;101710.47;;;25.31;46.99
64066;BME280;50318;54.760;9.408;2022-07-29T08:49:52;101706.88;;;25.36;45.93
64066;BME280;50318;54.760;9.408;2022-07-29T08:52:21;101702.69;;;25.43;45.76
64066;BME280;50318;54.760;9.408;2022-07-29T08:54:49;101705.72;;;25.45;44.76
64066;BME280;50318;54.760;9.408;2022-07-29T08:57:14;101705.72;;;25.45;45.16
64066;BME280;50318;54.760;9.408;2022-07-29T08:59:44;101705.41;;;25.49;44.85
64066;BME280;50318;54.760;9.408;2022-07-29T09:02:12;101698.28;;;25.48;44.13
64066;BME280;50318;54.760;9.408;2022-07-29T09:04:39;101690.84;;;25.50;43.74
64066;BME280;50318;54.760;9.408;2022-07-29T09:07:05;101692.13;;;25.49;43.71
64066;BME280;50318;54.760;9.408;2022-07-29T09:09:32;101688.13;;;25.45;43.63
64066;BME280;50318;54.760;9.408;2022-07-29T09:11:58;101688.44;;;25.41;43.64
64066;BME280;50318;54.760;9.408;2022-07-29T09:14:25;101691.22;;;25.41;44.42
64066;BME280;50318;54.760;9.408;2022-07-29T09:16:54;101687.06;;;25.48;44.90
64066;BME280;50318;54.760;9.408;2022-07-29T09:19:24;101683.13;;;25.56;44.85
64066;BME280;50318;54.760;9.408;2022-07-29T09:21:50;101688.34;;;25.65;44.40
64066;BME280;50318;54.760;9.408;2022-07-29T09:26:51;101686.00;;;25.69;42.52
64066;BME280;50318;54.760;9.408;2022-07-29T09:29:18;101684.25;;;25.66;42.72
64066;BME280;50318;54.760;9.408;2022-07-29T09:31:44;101684.50;;;25.68;42.98
64066;BME280;50318;54.760;9.408;2022-07-29T09:34:10;101684.19;;;25.72;43.39
64066;BME280;50318;54.760;9.408;2022-07-29T09:39:05;101684.69;;;25.89;43.96
64066;BME280;50318;54.760;9.408;2022-07-29T09:41:43;101682.34;;;25.93;42.98
64066;BME280;50318;54.760;9.408;2022-07-29T09:44:09;101686.22;;;25.90;43.33
64066;BME280;50318;54.760;9.408;2022-07-29T09:46:34;101690.75;;;25.93;43.55
64066;BME280;50318;54.760;9.408;2022-07-29T09:49:07;101684.47;;;25.87;43.80
64066;BME280;50318;54.760;9.408;2022-07-29T09:51:39;101686.69;;;25.76;43.89
64066;BME280;50318;54.760;9.408;2022-07-29T09:54:21;101685.09;;;25.61;44.10
64066;BME280;50318;54.760;9.408;2022-07-29T09:56:50;101685.84;;;25.43;44.59
64066;BME280;50318;54.760;9.408;2022-07-29T09:59:18;101674.28;;;25.28;44.98
64066;BME280;50318;54.760;9.408;2022-07-29T10:01:45;101679.53;;;25.18;45.58
64066;BME280;50318;54.760;9.408;2022-07-29T10:04:11;101679.41;;;25.05;45.82
64066;BME280;50318;54.760;9.408;2022-07-29T10:06:45;101681.69;;;25.06;46.13
64066;BME280;50318;54.760;9.408;2022-07-29T10:09:20;101672.91;;;25.16;45.36
64066;BME280;50318;54.760;9.408;2022-07-29T10:12:02;101672.75;;;25.27;45.26
64066;BME280;50318;54.760;9.408;2022-07-29T10:14:27;101675.44;;;25.38;45.30
64066;BME280;50318;54.760;9.408;2022-07-29T10:16:53;101673.47;;;25.33;45.19
64066;BME280;50318;54.760;9.408;2022-07-29T10:19:20;101676.19;;;25.20;45.62
64066;BME280;50318;54.760;9.408;2022-07-29T10:21:48;101675.03;;;25.09;45.32
64066;BME280;50318;54.760;9.408;2022-07-29T10:24:13;101674.03;;;25.07;45.56
64066;BME280;50318;54.760;9.408;2022-07-29T10:27:06;101666.25;;;25.19;45.71
64066;BME280;50318;54.760;9.408;2022-07-29T10:29:32;101665.28;;;25.35;45.00
64066;BME280;50318;54.760;9.408;2022-07-29T10:37:20;101666.94;;;25.81;44.53
64066;BME280;50318;54.760;9.408;2022-07-29T10:40:06;101663.81;;;25.85;43.05
64066;BME280;50318;54.760;9.408;2022-07-29T10:42:54;101661.91;;;25.93;42.62
64066;BME280;50318;54.760;9.408;2022-07-29T10:45:20;101660.72;;;26.01;42.51
64066;BME280;50318;54.760;9.408;2022-07-29T10:47:46;101656.28;;;25.93;41.74
64066;BME280;50318;54.760;9.408;2022-07-29T10:50:11;101663.28;;;25.86;42.10
64066;BME280;50318;54.760;9.408;2022-07-29T10:55:49;101656.94;;;25.67;41.75
64066;BME280;50318;54.760;9.408;2022-07-29T10:58:13;101662.00;;;25.68;42.44
64066;BME280;50318;54.760;9.408;2022-07-29T11:00:40;101656.25;;;25.80;41.91
64066;BME280;50318;54.760;9.408;2022-07-29T11:03:05;101660.16;;;25.90;41.96
64066;BME280;50318;54.760;9.408;2022-07-29T11:05:40;101654.81;;;26.05;41.67
64066;BME280;50318;54.760;9.408;2022-07-29T11:08:16;101651.38;;;26.12;41.56
64066;BME280;50318;54.760;9.408;2022-07-29T11:10:48;101655.59;;;26.19;40.91
64066;BME280;50318;54.760;9.408;2022-07-29T11:15:58;101657.47;;;26.29;40.61
64066;BME280;50318;54.760;9.408;2022-07-29T11:18:24;101656.53;;;26.40;40.29
64066;BME280;50318;54.760;9.408;2022-07-29T11:20:50;101657.09;;;26.52;40.22
64066;BME280;50318;54.760;9.408;2022-07-29T11:23:34;101651.56;;;26.59;39.61
64066;BME280;50318;54.760;9.408;2022-07-29T11:26:12;101650.06;;;26.58;38.67
64066;BME280;50318;54.760;9.408;2022-07-29T11:31:05;101651.78;;;26.61;39.34
64066;BME280;50318;54.760;9.408;2022-07-29T11:33:35;101649.19;;;26.64;38.87
64066;BME280;50318;54.760;9.408;2022-07-29T11:36:07;101643.25;;;26.54;37.92
64066;BME280;50318;54.760;9.408;2022-07-29T11:38:33;101651.78;;;26.48;38.50
64066;BME280;50318;54.760;9.408;2022-07-29T11:43:46;101643.59;;;26.77;39.96
64066;BME280;50318;54.760;9.408;2022-07-29T11:49:05;101634.78;;;26.93;40.19
64066;BME280;50318;54.760;9.408;2022-07-29T11:51:31;101655.81;;;26.79;38.90
64066;BME280;50318;54.760;9.408;2022-07-29T11:53:57;101643.47;;;26.56;39.22
64066;BME280;50318;54.760;9.408;2022-07-29T11:56:22;101648.75;;;26.46;40.31
64066;BME280;50318;54.760;9.408;2022-07-29T11:58:48;101637.06;;;26.42;40.40
64066;BME280;50318;54.760;9.408;2022-07-29T12:01:16;101647.13;;;26.38;40.93
64066;BME280;50318;54.760;9.408;2022-07-29T12:04:17;101647.06;;;26.24;41.20
64066;BME280;50318;54.760;9.408;2022-07-29T12:06:43;101654.63;;;26.16;41.43
64066;BME280;50318;54.760;9.408;2022-07-29T12:09:16;101655.56;;;26.06;41.43
64066;BME280;50318;54.760;9.408;2022-07-29T12:11:43;101651.94;;;25.92;42.07
64066;BME280;50318;54.760;9.408;2022-07-29T12:14:08;101658.28;;;25.79;42.14
64066;BME280;50318;54.760;9.408;2022-07-29T12:16:36;101647.72;;;25.66;42.70
64066;BME280;50318;54.760;9.408;2022-07-29T12:19:03;101651.16;;;25.59;42.88
64066;BME280;50318;54.760;9.408;2022-07-29T12:21:29;101653.03;;;25.51;42.93
64066;BME280;50318;54.760;9.408;2022-07-29T12:24:08;101646.81;;;25.39;42.57
64066;BME280;50318;54.760;9.408;2022-07-29T12:29:19;101648.78;;;25.26;41.60
64066;BME280;50318;54.760;9.408;2022-07-29T12:31:45;101649.84;;;25.23;41.57
64066;BME280;50318;54.760;9.408;2022-07-29T12:34:15;101644.69;;;25.27;41.83
64066;BME280;50318;54.760;9.408;2022-07-29T12:36:43;101652.31;;;25.32;40.82
64066;BME280;50318;54.760;9.408;2022-07-29T12:39:12;101648.03;;;25.44;41.06
64066;BME280;50318;54.760;9.408;2022-07-29T12:41:37;101647.59;;;25.59;41.07
64066;BME280;50318;54.760;9.408;2022-07-29T12:44:09;101630.25;;;25.74;40.79
64066;BME280;50318;54.760;9.408;2022-07-29T12:46:35;101637.00;;;25.84;40.72
64066;BME280;50318;54.760;9.408;2022-07-29T12:49:01;101635.41;;;25.88;40.38
64066;BME280;50318;54.760;9.408;2022-07-29T12:51:30;101635.84;;;25.92;40.50
64066;BME280;50318;54.760;9.408;2022-07-29T12:56:28;101635.97;;;26.00;40.92
64066;BME280;50318;54.760;9.408;2022-07-29T12:58:53;101625.94;;;26.05;39.81
64066;BME280;50318;54.760;9.408;2022-07-29T13:01:19;101626.59;;;26.11;39.62
64066;BME280;50318;54.760;9.408;2022-07-29T13:06:57;101628.25;;;26.33;40.04
64066;BME280;50318;54.760;9.408;2022-07-29T13:09:09;101624.72;;;26.45;39.67
64066;BME280;50318;54.760;9.408;2022-07-29T13:14:05;101610.25;;;26.54;40.29
64066;BME280;50318;54.760;9.408;2022-07-29T13:16:34;101609.50;;;26.54;40.02
64066;BME280;50318;54.760;9.408;2022-07-29T13:19:10;101607.97;;;26.53;40.04
64066;BME280;50318;54.760;9.408;2022-07-29T13:21:36;101604.69;;;26.49;39.38
64066;BME280;50318;54.760;9.408;2022-07-29T13:24:02;101598.31;;;26.48;39.18
64066;BME280;50318;54.760;9.408;2022-07-29T13:26:27;101601.59;;;26.52;39.25
64066;BME280;50318;54.760;9.408;2022-07-29T13:28:54;101603.88;;;26.54;38.58
64066;BME280;50318;54.760;9.408;2022-07-29T13:31:19;101602.13;;;26.51;38.39
64066;BME280;50318;54.760;9.408;2022-07-29T13:33:45;101600.16;;;26.46;38.73
64066;BME280;50318;54.760;9.408;2022-07-29T13:36:10;101596.91;;;26.42;38.71
64066;BME280;50318;54.760;9.408;2022-07-29T13:38:36;101606.16;;;26.23;37.30
64066;BME280;50318;54.760;9.408;2022-07-29T13:41:01;101589.63;;;26.07;38.05